createdAt,value
2023-05-31T00:01:11.352Z,90.44
2023-05-31T00:03:59.477Z,90.68
2023-05-31T00:06:47.599Z,90.46
2023-05-31T00:10:04.064Z,90.39
2023-05-31T00:12:51.863Z,90.62
2023-05-31T00:15:39.659Z,90.91
2023-05-31T00:18:27.569Z,91.49
2023-05-31T00:21:16.231Z,91.05
2023-05-31T00:24:04.094Z,91.81
2023-05-31T00:26:51.970Z,91.91
2023-05-31T00:29:39.721Z,92.47
2023-05-31T00:32:27.842Z,92.27
2023-05-31T00:35:15.831Z,92.80
2023-05-31T00:38:08.420Z,93.17
2023-05-31T00:40:56.467Z,93.04
2023-05-31T00:43:44.837Z,93.40
2023-05-31T00:46:37.052Z,93.60
2023-05-31T00:49:27.945Z,93.87
2023-05-31T00:52:16.297Z,94.26
2023-05-31T00:55:05.776Z,94.38
2023-05-31T00:57:53.855Z,94.51
2023-05-31T01:00:41.671Z,94.74
2023-05-31T01:03:29.643Z,95.32
2023-05-31T01:06:17.940Z,95.39
2023-05-31T01:09:11.212Z,95.43
2023-05-31T01:12:22.889Z,95.76
2023-05-31T01:15:35.271Z,96.04
2023-05-31T01:18:59.047Z,96.54
2023-05-31T01:22:02.772Z,96.20
2023-05-31T01:25:38.395Z,96.97
2023-05-31T01:28:36.272Z,97.64
2023-05-31T01:31:24.497Z,98.27
2023-05-31T01:34:13.693Z,98.22
2023-05-31T01:37:01.534Z,97.87
2023-05-31T01:39:52.941Z,98.92
2023-05-31T01:42:43.444Z,98.49
2023-05-31T01:45:32.786Z,99.68
2023-05-31T01:48:21.094Z,99.33
2023-05-31T01:51:15.401Z,99.66
2023-05-31T01:54:03.754Z,99.71
2023-05-31T01:56:53.406Z,100.00
2023-05-31T02:00:37.710Z,99.78
2023-05-31T02:03:26.856Z,100.00
2023-05-31T02:06:14.975Z,100.00
2023-05-31T02:09:07.017Z,100.00
2023-05-31T02:11:54.909Z,100.00
2023-05-31T02:14:44.182Z,100.00
2023-05-31T02:17:34.686Z,100.00
2023-05-31T02:20:24.972Z,100.00
2023-05-31T02:23:17.417Z,100.00
2023-05-31T02:26:06.323Z,100.00
2023-05-31T02:28:54.737Z,100.00
2023-05-31T02:31:43.246Z,100.00
2023-05-31T02:34:32.880Z,100.00
2023-05-31T02:37:21.020Z,100.00
2023-05-31T02:40:09.964Z,100.00
2023-05-31T02:42:58.649Z,100.00
2023-05-31T02:45:46.965Z,100.00
2023-05-31T02:48:35.859Z,100.00
2023-05-31T02:51:29.178Z,100.00
2023-05-31T02:54:43.271Z,100.00
2023-05-31T02:57:35.981Z,100.00
2023-05-31T03:00:25.111Z,100.00
2023-05-31T03:03:13.446Z,100.00
2023-05-31T03:06:20.539Z,100.00
2023-05-31T03:09:08.789Z,100.00
2023-05-31T03:11:58.401Z,100.00
2023-05-31T03:14:48.595Z,100.00
2023-05-31T03:17:38.498Z,100.00
2023-05-31T03:20:26.998Z,100.00
2023-05-31T03:23:14.934Z,100.00
2023-05-31T03:26:05.961Z,100.00
2023-05-31T03:28:54.130Z,100.00
2023-05-31T03:31:42.739Z,100.00
2023-05-31T03:34:31.663Z,100.00
2023-05-31T03:37:20.250Z,100.00
2023-05-31T03:40:16.925Z,100.00
2023-05-31T03:43:06.184Z,100.00
2023-05-31T03:45:54.571Z,100.00
2023-05-31T03:48:42.994Z,100.00
2023-05-31T03:51:31.454Z,100.00
2023-05-31T03:54:19.586Z,100.00
2023-05-31T03:57:08.526Z,100.00
2023-05-31T03:59:56.834Z,100.00
2023-05-31T04:02:55.974Z,100.00
2023-05-31T04:05:51.221Z,100.00
2023-05-31T04:08:39.343Z,100.00
2023-05-31T04:11:27.157Z,100.00
2023-05-31T04:14:15.171Z,100.00
2023-05-31T04:17:03.826Z,100.00
2023-05-31T04:19:52.413Z,100.00
2023-05-31T04:22:40.458Z,100.00
2023-05-31T04:25:28.814Z,100.00
2023-05-31T04:28:21.530Z,100.00
2023-05-31T04:31:09.775Z,100.00
2023-05-31T04:33:58.189Z,100.00
2023-05-31T04:36:52.735Z,100.00
2023-05-31T04:39:43.610Z,100.00
2023-05-31T04:42:33.741Z,100.00
2023-05-31T04:45:22.756Z,100.00
2023-05-31T04:48:16.248Z,100.00
2023-05-31T04:51:05.505Z,100.00
2023-05-31T04:53:54.722Z,100.00
2023-05-31T04:56:43.364Z,100.00
2023-05-31T04:59:33.246Z,100.00
2023-05-31T05:02:25.249Z,100.00
2023-05-31T05:05:14.286Z,100.00
2023-05-31T05:08:02.363Z,100.00
2023-05-31T05:10:50.971Z,100.00
2023-05-31T05:13:42.672Z,100.00
2023-05-31T05:16:31.053Z,100.00
2023-05-31T05:19:19.311Z,100.00
2023-05-31T05:22:08.216Z,100.00
2023-05-31T05:24:56.190Z,100.00
2023-05-31T05:27:44.372Z,100.00
2023-05-31T05:30:33.670Z,100.00
2023-05-31T05:34:00.694Z,100.00
2023-05-31T05:36:41.830Z,100.00
2023-05-31T05:39:29.845Z,100.00
2023-05-31T05:42:18.102Z,100.00
2023-05-31T05:45:10.219Z,99.62
2023-05-31T05:47:59.575Z,99.36
2023-05-31T05:50:48.373Z,98.72
2023-05-31T05:53:36.413Z,98.12
2023-05-31T05:56:24.558Z,97.57
2023-05-31T05:59:18.825Z,97.30
2023-05-31T06:02:34.113Z,98.00
2023-05-31T06:05:27.856Z,97.43
2023-05-31T06:08:16.855Z,96.31
2023-05-31T06:11:12.522Z,95.99
2023-05-31T06:14:06.392Z,94.96
2023-05-31T06:17:00.714Z,94.49
2023-05-31T06:19:48.675Z,94.16
2023-05-31T06:22:36.475Z,93.50
2023-05-31T06:25:24.443Z,93.01
2023-05-31T06:28:12.640Z,92.56
2023-05-31T06:31:02.160Z,91.30
2023-05-31T06:33:57.836Z,90.16
2023-05-31T06:36:55.053Z,90.80
2023-05-31T06:39:43.533Z,90.03
2023-05-31T06:42:31.806Z,88.29
2023-05-31T06:46:15.210Z,87.33
2023-05-31T06:49:38.161Z,86.88
2023-05-31T06:52:42.004Z,86.28
2023-05-31T06:55:48.779Z,86.38
2023-05-31T06:58:44.788Z,84.60
2023-05-31T07:01:37.842Z,83.93
2023-05-31T07:04:26.892Z,82.21
2023-05-31T07:07:26.754Z,81.77
2023-05-31T07:10:23.641Z,81.27
2023-05-31T07:13:28.833Z,80.51
2023-05-31T07:16:17.871Z,78.99
2023-05-31T07:19:11.555Z,79.33
2023-05-31T07:22:01.363Z,80.07
2023-05-31T07:24:49.613Z,77.70
2023-05-31T07:27:38.014Z,78.06
2023-05-31T07:30:26.548Z,76.72
2023-05-31T07:33:14.455Z,75.74
2023-05-31T07:36:12.725Z,74.83
2023-05-31T07:39:00.929Z,74.93
2023-05-31T07:41:48.798Z,74.63
2023-05-31T07:44:36.711Z,73.87
2023-05-31T07:47:25.359Z,73.93
2023-05-31T07:50:13.336Z,72.78
2023-05-31T07:53:01.240Z,72.44
2023-05-31T07:55:49.165Z,73.04
2023-05-31T07:58:37.666Z,72.26
2023-05-31T08:01:25.546Z,71.61
2023-05-31T08:04:13.599Z,70.85
2023-05-31T08:07:02.240Z,70.50
2023-05-31T08:09:50.040Z,70.20
2023-05-31T08:13:08.317Z,70.51
2023-05-31T08:15:56.911Z,70.31
2023-05-31T08:18:46.111Z,68.77
2023-05-31T08:21:34.032Z,68.33
2023-05-31T08:24:21.838Z,67.77
2023-05-31T08:27:09.632Z,66.98
2023-05-31T08:29:57.489Z,66.97
2023-05-31T08:32:45.575Z,66.31
2023-05-31T08:35:33.363Z,65.96
2023-05-31T08:38:21.117Z,65.39
2023-05-31T08:41:09.081Z,65.29
2023-05-31T08:43:58.075Z,65.38
2023-05-31T08:46:49.085Z,63.71
2023-05-31T08:49:37.362Z,63.86
2023-05-31T08:52:26.496Z,63.17
2023-05-31T08:55:15.129Z,61.58
2023-05-31T08:58:03.797Z,62.75
2023-05-31T09:00:51.809Z,62.56
2023-05-31T09:03:43.263Z,59.69
2023-05-31T09:06:31.605Z,60.22
2023-05-31T09:09:20.185Z,60.76
2023-05-31T09:12:08.469Z,59.51
2023-05-31T09:14:56.400Z,58.38
2023-05-31T09:17:47.687Z,60.20
2023-05-31T09:20:35.668Z,57.25
2023-05-31T09:23:23.540Z,58.47
2023-05-31T09:26:11.406Z,57.63
2023-05-31T09:28:59.966Z,58.25
2023-05-31T09:31:48.310Z,57.80
2023-05-31T09:34:36.068Z,58.13
2023-05-31T09:37:25.758Z,58.36
2023-05-31T09:40:30.795Z,57.96
2023-05-31T09:43:18.534Z,55.79
2023-05-31T09:46:13.276Z,57.26
2023-05-31T09:49:07.773Z,53.79
2023-05-31T09:51:56.943Z,53.70
2023-05-31T09:54:44.865Z,54.11
2023-05-31T09:57:41.389Z,53.77
2023-05-31T10:00:29.426Z,52.46
2023-05-31T10:03:17.895Z,52.87
2023-05-31T10:06:05.943Z,53.06
2023-05-31T10:08:54.004Z,53.77
2023-05-31T10:11:51.397Z,53.24
2023-05-31T10:14:47.236Z,53.23
2023-05-31T10:17:46.192Z,52.83
2023-05-31T10:20:57.216Z,51.86
2023-05-31T10:23:56.075Z,49.57
2023-05-31T10:27:25.228Z,49.33
2023-05-31T10:30:14.945Z,49.67
2023-05-31T10:33:13.360Z,50.04
2023-05-31T10:36:01.982Z,49.56
2023-05-31T10:39:01.297Z,50.10
2023-05-31T10:41:59.294Z,50.04
2023-05-31T10:45:05.099Z,49.95
2023-05-31T10:48:03.529Z,49.70
2023-05-31T10:51:00.061Z,49.20
2023-05-31T10:53:48.140Z,48.90
2023-05-31T10:56:40.171Z,48.33
2023-05-31T10:59:28.336Z,49.14
2023-05-31T11:02:18.204Z,48.95
2023-05-31T11:05:28.044Z,46.13
2023-05-31T11:08:16.248Z,47.89
2023-05-31T11:11:32.841Z,43.66
2023-05-31T11:14:27.568Z,43.70
2023-05-31T11:17:16.811Z,44.59
2023-05-31T11:20:06.720Z,44.36
2023-05-31T11:23:32.810Z,43.53
2023-05-31T11:26:22.180Z,43.41
2023-05-31T11:29:10.030Z,42.72
2023-05-31T11:32:00.391Z,42.31
2023-05-31T11:34:57.406Z,40.87
2023-05-31T11:37:45.418Z,41.14
2023-05-31T11:40:36.547Z,40.94
2023-05-31T11:43:27.106Z,40.86
2023-05-31T11:46:15.245Z,41.36
2023-05-31T11:49:03.092Z,41.01
2023-05-31T11:51:50.990Z,41.48
2023-05-31T11:54:38.960Z,41.46
2023-05-31T11:57:27.434Z,42.00
2023-05-31T12:00:16.588Z,41.15
2023-05-31T12:03:06.837Z,40.52
2023-05-31T12:06:00.299Z,40.99
2023-05-31T12:08:48.137Z,40.80
2023-05-31T12:11:37.126Z,40.03
2023-05-31T12:14:27.421Z,40.69
2023-05-31T12:17:15.484Z,41.01
2023-05-31T12:20:06.173Z,40.34
2023-05-31T12:23:08.476Z,40.84
2023-05-31T12:26:00.130Z,40.68
2023-05-31T12:28:48.326Z,40.81
2023-05-31T12:31:38.822Z,40.30
2023-05-31T12:34:27.331Z,39.38
2023-05-31T12:37:15.148Z,39.06
2023-05-31T12:40:17.817Z,40.00
2023-05-31T12:43:06.849Z,40.66
2023-05-31T12:45:54.664Z,39.57
2023-05-31T12:48:49.571Z,40.01
2023-05-31T12:51:37.897Z,40.43
2023-05-31T12:54:31.902Z,40.59
2023-05-31T12:57:19.712Z,40.21
2023-05-31T13:00:12.417Z,40.45
2023-05-31T13:03:00.533Z,40.55
2023-05-31T13:05:48.545Z,40.17
2023-05-31T13:08:36.362Z,40.62
2023-05-31T13:11:24.164Z,39.41
2023-05-31T13:14:12.518Z,40.04
2023-05-31T13:17:00.571Z,40.26
2023-05-31T13:19:57.157Z,40.72
2023-05-31T13:22:59.012Z,39.69
2023-05-31T13:25:47.486Z,39.87
2023-05-31T13:28:35.448Z,40.66
2023-05-31T13:31:24.960Z,40.28
2023-05-31T13:34:12.747Z,40.20
2023-05-31T13:37:00.544Z,39.73
2023-05-31T13:39:48.874Z,38.21
2023-05-31T13:42:36.636Z,38.73
2023-05-31T13:45:24.487Z,39.91
2023-05-31T13:48:14.506Z,40.46
2023-05-31T13:51:02.566Z,39.69
2023-05-31T13:53:50.785Z,38.38
2023-05-31T13:56:38.616Z,38.93
2023-05-31T13:59:26.418Z,39.36
2023-05-31T14:02:14.163Z,39.69
2023-05-31T14:05:04.483Z,38.64
2023-05-31T14:07:52.511Z,39.15
2023-05-31T14:10:40.606Z,39.14
2023-05-31T14:13:30.205Z,39.49
2023-05-31T14:16:18.072Z,38.85
2023-05-31T14:19:06.296Z,39.17
2023-05-31T14:21:54.056Z,39.90
2023-05-31T14:24:41.909Z,39.61
2023-05-31T14:27:29.715Z,38.77
2023-05-31T14:30:17.520Z,38.71
2023-05-31T14:33:05.578Z,39.33
2023-05-31T14:35:53.891Z,38.27
2023-05-31T14:38:43.129Z,38.85
2023-05-31T14:41:30.993Z,38.64
2023-05-31T14:44:18.862Z,38.50
2023-05-31T14:47:06.881Z,37.66
2023-05-31T14:49:54.643Z,37.65
2023-05-31T14:52:42.467Z,37.55
2023-05-31T14:55:30.436Z,37.72
2023-05-31T14:58:18.378Z,37.95
2023-05-31T15:01:06.408Z,37.88
2023-05-31T15:03:56.285Z,37.53
2023-05-31T15:06:44.208Z,37.31
2023-05-31T15:09:32.067Z,37.03
2023-05-31T15:12:19.791Z,38.10
2023-05-31T15:15:08.142Z,37.50
2023-05-31T15:17:56.009Z,37.05
2023-05-31T15:20:43.785Z,37.27
2023-05-31T15:23:31.586Z,36.60
2023-05-31T15:26:19.629Z,36.68
2023-05-31T15:29:07.462Z,36.05
2023-05-31T15:31:58.122Z,36.60
2023-05-31T15:34:45.982Z,36.48
2023-05-31T15:37:34.520Z,36.49
2023-05-31T15:40:22.321Z,37.01
2023-05-31T15:43:10.052Z,36.17
2023-05-31T15:45:57.912Z,36.50
2023-05-31T15:48:45.718Z,37.28
2023-05-31T15:51:33.465Z,37.00
2023-05-31T15:54:21.370Z,37.26
2023-05-31T15:57:09.786Z,37.92
2023-05-31T15:59:57.525Z,36.97
2023-05-31T16:02:45.345Z,35.78
2023-05-31T16:05:33.386Z,35.72
2023-05-31T16:08:21.293Z,35.31
2023-05-31T16:11:09.146Z,36.37
2023-05-31T16:13:56.888Z,36.67
2023-05-31T16:16:44.726Z,36.32
2023-05-31T16:19:32.620Z,36.22
2023-05-31T16:22:20.473Z,36.13
2023-05-31T16:25:10.462Z,36.28
2023-05-31T16:27:58.252Z,36.24
2023-05-31T16:30:46.337Z,36.24
2023-05-31T16:33:34.089Z,36.59
2023-05-31T16:36:22.238Z,36.74
2023-05-31T16:39:10.060Z,37.04
2023-05-31T16:41:59.197Z,36.30
2023-05-31T16:44:46.926Z,36.72
2023-05-31T16:47:34.730Z,36.82
2023-05-31T16:50:22.673Z,36.19
2023-05-31T16:53:10.895Z,36.95
2023-05-31T16:55:58.904Z,36.08
2023-05-31T16:58:46.768Z,36.22
2023-05-31T17:01:35.056Z,36.34
2023-05-31T17:04:22.908Z,36.63
2023-05-31T17:07:10.867Z,37.08
2023-05-31T17:09:59.193Z,36.58
2023-05-31T17:12:48.076Z,36.65
2023-05-31T17:15:36.036Z,36.71
2023-05-31T17:18:24.104Z,37.00
2023-05-31T17:21:11.828Z,36.81
2023-05-31T17:23:59.694Z,36.74
2023-05-31T17:26:48.413Z,36.75
2023-05-31T17:29:36.166Z,36.74
2023-05-31T17:32:23.914Z,37.05
2023-05-31T17:35:11.705Z,37.05
2023-05-31T17:37:59.417Z,37.71
2023-05-31T17:40:47.236Z,38.35
2023-05-31T17:43:36.333Z,37.22
2023-05-31T17:46:24.367Z,37.69
2023-05-31T17:49:12.252Z,37.73
2023-05-31T17:52:00.149Z,38.04
2023-05-31T17:54:47.957Z,39.03
2023-05-31T17:57:36.184Z,39.62
2023-05-31T18:00:24.047Z,39.82
2023-05-31T18:03:11.860Z,40.79
2023-05-31T18:05:59.858Z,40.95
2023-05-31T18:08:47.643Z,41.57
2023-05-31T18:11:35.403Z,42.15
2023-05-31T18:14:23.228Z,42.80
2023-05-31T18:17:11.008Z,42.95
2023-05-31T18:19:58.806Z,43.68
2023-05-31T18:22:46.632Z,44.00
2023-05-31T18:25:34.932Z,44.90
2023-05-31T18:28:23.500Z,44.86
2023-05-31T18:31:11.425Z,45.29
2023-05-31T18:33:59.791Z,45.73
2023-05-31T18:36:47.667Z,45.92
2023-05-31T18:39:35.687Z,46.16
2023-05-31T18:42:23.513Z,46.47
2023-05-31T18:45:12.995Z,47.04
2023-05-31T18:48:06.864Z,47.34
2023-05-31T18:50:54.707Z,47.95
2023-05-31T18:53:42.645Z,48.06
2023-05-31T18:56:31.209Z,48.21
2023-05-31T18:59:19.327Z,48.82
2023-05-31T19:02:07.904Z,49.07
2023-05-31T19:04:55.848Z,49.20
2023-05-31T19:07:44.037Z,49.99
2023-05-31T19:10:34.871Z,50.36
2023-05-31T19:13:22.754Z,50.98
2023-05-31T19:16:10.734Z,51.47
2023-05-31T19:18:58.750Z,51.74
2023-05-31T19:21:46.692Z,52.79
2023-05-31T19:24:34.572Z,52.93
2023-05-31T19:27:22.369Z,54.27
2023-05-31T19:30:10.866Z,54.23
2023-05-31T19:32:58.672Z,55.07
2023-05-31T19:35:46.890Z,55.64
2023-05-31T19:38:34.691Z,55.71
2023-05-31T19:41:22.951Z,56.52
2023-05-31T19:44:10.817Z,56.68
2023-05-31T19:46:58.651Z,57.05
2023-05-31T19:49:46.529Z,57.79
2023-05-31T19:52:34.341Z,58.39
2023-05-31T19:55:22.093Z,58.48
2023-05-31T19:58:09.900Z,58.99
2023-05-31T20:00:57.868Z,59.20
2023-05-31T20:03:45.878Z,59.66
2023-05-31T20:06:33.734Z,60.19
2023-05-31T20:09:21.494Z,60.30
2023-05-31T20:12:09.661Z,60.98
2023-05-31T20:14:58.389Z,61.12
2023-05-31T20:17:47.664Z,61.11
2023-05-31T20:20:35.488Z,61.85
2023-05-31T20:23:23.283Z,61.91
2023-05-31T20:26:11.304Z,62.16
2023-05-31T20:28:59.084Z,62.75
2023-05-31T20:31:47.093Z,63.01
2023-05-31T20:34:34.970Z,62.87
2023-05-31T20:37:22.707Z,63.69
2023-05-31T20:40:11.392Z,64.08
2023-05-31T20:42:59.196Z,64.28
2023-05-31T20:45:46.983Z,64.92
2023-05-31T20:48:34.765Z,65.86
2023-05-31T20:51:23.549Z,65.79
2023-05-31T20:54:11.347Z,66.20
2023-05-31T20:56:59.916Z,67.16
2023-05-31T20:59:47.918Z,66.98
2023-05-31T21:02:38.008Z,67.88
2023-05-31T21:05:26.035Z,68.10
2023-05-31T21:08:13.795Z,68.62
2023-05-31T21:11:01.580Z,69.42
2023-05-31T21:13:49.421Z,70.11
2023-05-31T21:16:37.316Z,70.35
2023-05-31T21:19:25.866Z,70.35
2023-05-31T21:22:13.599Z,71.44
2023-05-31T21:25:01.357Z,71.68
2023-05-31T21:27:49.094Z,72.15
2023-05-31T21:30:36.950Z,73.04
2023-05-31T21:33:24.853Z,73.49
2023-05-31T21:36:12.595Z,73.82
2023-05-31T21:39:00.423Z,74.60
2023-05-31T21:41:48.243Z,74.62
2023-05-31T21:44:36.186Z,74.88
2023-05-31T21:47:23.969Z,75.58
2023-05-31T21:50:11.914Z,75.45
2023-05-31T21:52:59.753Z,75.92
2023-05-31T21:55:47.564Z,75.83
2023-05-31T21:58:35.353Z,76.45
2023-05-31T22:01:24.904Z,77.05
2023-05-31T22:04:12.800Z,77.26
2023-05-31T22:07:00.576Z,77.57
2023-05-31T22:09:48.499Z,77.14
2023-05-31T22:12:36.543Z,78.48
2023-05-31T22:15:27.040Z,78.61
2023-05-31T22:18:15.197Z,78.39
2023-05-31T22:21:05.706Z,78.99
2023-05-31T22:23:54.102Z,79.25
2023-05-31T22:26:41.923Z,80.03
2023-05-31T22:29:29.668Z,79.75
2023-05-31T22:32:19.879Z,80.29
2023-05-31T22:35:08.263Z,80.60
2023-05-31T22:37:56.267Z,80.78
2023-05-31T22:40:44.265Z,81.89
2023-05-31T22:43:32.366Z,81.75
2023-05-31T22:46:20.600Z,81.89
2023-05-31T22:49:08.424Z,82.36
2023-05-31T22:52:00.023Z,82.27
2023-05-31T22:54:48.255Z,82.24
2023-05-31T22:57:36.062Z,82.44
2023-05-31T23:00:23.864Z,83.24
2023-05-31T23:03:11.718Z,83.86
2023-05-31T23:06:01.758Z,84.38
2023-05-31T23:08:50.246Z,84.28
2023-05-31T23:11:38.343Z,84.78
2023-05-31T23:14:27.510Z,85.26
2023-05-31T23:17:17.398Z,85.51
2023-05-31T23:20:16.246Z,86.42
2023-05-31T23:23:05.678Z,86.02
2023-05-31T23:25:53.662Z,85.97
2023-05-31T23:28:41.468Z,86.56
2023-05-31T23:31:29.451Z,86.46
2023-05-31T23:34:17.342Z,86.62
2023-05-31T23:37:05.713Z,86.58
2023-05-31T23:39:54.076Z,86.83
2023-05-31T23:42:41.906Z,87.41
2023-05-31T23:45:29.832Z,87.74
2023-05-31T23:48:17.577Z,87.86
2023-05-31T23:51:05.545Z,88.52
2023-05-31T23:53:53.386Z,89.10
2023-05-31T23:56:41.381Z,88.41
2023-05-31T23:59:29.209Z,89.39
